N815SG CYZV-CYVP

Flight info

Callsign N815SG
Flight time 2h 32m
Altitude 5000
Route YWK
Aircraft BE58/L-SDFGRY/C

Departure

Time 2026-05-06 19:51
Airport Sept-Îles Airport (CYZV)

Arrival

Time 2026-05-06 22:23
Airport Kuujjuaq Airport (CYVP)
Time Latitude Longitude Altitude Speed Heading
2026-05-06 19:47 50.21911 -66.26352 174 ft 0 kts 290°
2026-05-06 19:48 50.21947 -66.26318 174 ft 15 kts 66°
2026-05-06 19:49 50.21984 -66.26216 174 ft 20 kts 54°
2026-05-06 19:49 50.22099 -66.26230 172 ft 25 kts 341°
2026-05-06 19:49 50.22202 -66.25990 171 ft 36 kts 68°
2026-05-06 19:49 50.22293 -66.25612 173 ft 37 kts 73°
2026-05-06 19:50 50.22345 -66.25462 174 ft 9 kts 251°
2026-05-06 19:50 50.22272 -66.25745 171 ft 60 kts 248°
2026-05-06 19:50 50.21987 -66.27045 361 ft 114 kts 252°
2026-05-06 19:50 50.21853 -66.27857 660 ft 116 kts 255°
2026-05-06 19:51 50.21704 -66.29158 1070 ft 123 kts 257°
2026-05-06 19:51 50.21719 -66.30543 1446 ft 132 kts 289°
2026-05-06 19:51 50.22492 -66.31297 1641 ft 155 kts
2026-05-06 19:51 50.23582 -66.31555 1790 ft 165 kts 342°
2026-05-06 19:52 50.24690 -66.32059 1924 ft 166 kts 341°
2026-05-06 19:52 50.25800 -66.32560 2051 ft 166 kts 342°
2026-05-06 19:52 50.26914 -66.33054 2176 ft 166 kts 342°
2026-05-06 19:52 50.28015 -66.33528 2382 ft 162 kts 343°
2026-05-06 19:53 50.29109 -66.33331 2589 ft 161 kts 31°
2026-05-06 19:53 50.29768 -66.32022 2796 ft 153 kts 81°
2026-05-06 19:53 50.29645 -66.30462 3002 ft 144 kts 111°
2026-05-06 19:53 50.29662 -66.28872 3207 ft 148 kts 92°
2026-05-06 19:54 50.29312 -66.27508 3411 ft 135 kts 140°
2026-05-06 19:54 50.28857 -66.26221 3617 ft 145 kts 98°
2026-05-06 19:54 50.29219 -66.24750 3820 ft 152 kts 45°
2026-05-06 19:54 50.30168 -66.24162 4026 ft 148 kts 353°
2026-05-06 19:55 50.31191 -66.24239 4234 ft 148 kts 359°
2026-05-06 19:55 50.32185 -66.24469 4439 ft 142 kts 334°
2026-05-06 19:55 50.33054 -66.25150 4647 ft 139 kts 324°
2026-05-06 19:55 50.33919 -66.25900 4769 ft 146 kts 324°
2026-05-06 19:56 50.34828 -66.26693 4816 ft 153 kts 324°
2026-05-06 19:56 50.35775 -66.27524 4856 ft 159 kts 324°
2026-05-06 19:56 50.36800 -66.28281 4865 ft 171 kts 345°
2026-05-06 19:56 50.37987 -66.27941 4866 ft 181 kts 30°
2026-05-06 19:57 50.38783 -66.26453 4868 ft 181 kts 74°
2026-05-06 19:57 50.38779 -66.24566 4876 ft 172 kts 118°
2026-05-06 19:57 50.38004 -66.23291 4852 ft 159 kts 163°
2026-05-06 19:57 50.36973 -66.23378 4856 ft 150 kts 212°
2026-05-06 19:58 50.36430 -66.24727 4864 ft 156 kts 261°
2026-05-06 19:58 50.36794 -66.26352 4871 ft 170 kts 307°
2026-05-06 19:58 50.37869 -66.27204 4867 ft 181 kts 343°
2026-05-06 19:58 50.39005 -66.27948 4859 ft 176 kts 324°
2026-05-06 19:59 50.40056 -66.28932 4854 ft 175 kts 323°
2026-05-06 19:59 50.41095 -66.29933 4855 ft 175 kts 322°
2026-05-06 19:59 50.42180 -66.30826 4871 ft 180 kts 335°
2026-05-06 19:59 50.43378 -66.31435 4884 ft 182 kts 340°
2026-05-06 20:00 50.44632 -66.31782 4906 ft 185 kts 351°
2026-05-06 20:00 50.45909 -66.31736 4881 ft 190 kts 15°
2026-05-06 20:00 50.46987 -66.30567 4874 ft 191 kts 47°
2026-05-06 20:00 50.48089 -66.29461 4868 ft 189 kts 11°
2026-05-06 20:01 50.49384 -66.29221 4865 ft 187 kts 360°
2026-05-06 20:01 50.50642 -66.29531 4854 ft 182 kts 342°
2026-05-06 20:01 50.51870 -66.30003 4860 ft 181 kts 341°
2026-05-06 20:01 50.53086 -66.30501 4863 ft 181 kts 342°
2026-05-06 20:02 50.54342 -66.30343 4870 ft 188 kts 22°
2026-05-06 20:02 50.55465 -66.29295 4842 ft 186 kts 17°
2026-05-06 20:02 50.56716 -66.29198 4860 ft 180 kts 347°
2026-05-06 20:02 50.57944 -66.29565 4857 ft 179 kts 342°
2026-05-06 20:03 50.59156 -66.30008 4858 ft 178 kts 341°
2026-05-06 20:03 50.60359 -66.30484 4866 ft 179 kts 340°
2026-05-06 20:03 50.61564 -66.30975 4855 ft 179 kts 340°
2026-05-06 20:03 50.62773 -66.31471 4862 ft 180 kts 340°
2026-05-06 20:04 50.63989 -66.31967 4858 ft 181 kts 342°
2026-05-06 20:04 50.65268 -66.31985 4861 ft 186 kts 358°
2026-05-06 20:04 50.66522 -66.32287 4858 ft 182 kts 342°
2026-05-06 20:04 50.67759 -66.32709 4858 ft 184 kts 349°
2026-05-06 20:05 50.69006 -66.32225 4846 ft 190 kts 32°
2026-05-06 20:05 50.70155 -66.31253 4843 ft 186 kts
2026-05-06 20:05 50.71425 -66.31155 4841 ft 182 kts 354°
2026-05-06 20:05 50.72671 -66.31233 4849 ft 182 kts 352°
2026-05-06 20:06 50.73931 -66.31361 4848 ft 181 kts 348°
2026-05-06 20:06 50.75133 -66.31875 4842 ft 179 kts 337°
2026-05-06 20:06 50.76325 -66.32462 4860 ft 180 kts 337°
2026-05-06 20:06 50.77531 -66.33054 4862 ft 183 kts 337°
2026-05-06 20:07 50.78752 -66.33666 4867 ft 185 kts 337°
2026-05-06 20:07 50.79976 -66.34283 4828 ft 184 kts 336°
2026-05-06 20:07 50.81190 -66.34891 4841 ft 183 kts 337°
2026-05-06 20:07 50.82405 -66.35504 4841 ft 183 kts 336°
2026-05-06 20:08 50.83609 -66.36109 4831 ft 180 kts 336°
2026-05-06 20:08 50.84803 -66.36717 4839 ft 181 kts 336°
2026-05-06 20:08 50.86001 -66.37325 4846 ft 181 kts 337°
2026-05-06 20:08 50.87208 -66.37935 4850 ft 183 kts 337°
2026-05-06 20:09 50.88432 -66.38528 4842 ft 184 kts 339°
2026-05-06 20:09 50.89661 -66.39088 4837 ft 184 kts 340°
2026-05-06 20:09 50.90938 -66.38967 4827 ft 189 kts 22°
2026-05-06 20:09 50.91978 -66.37761 4835 ft 189 kts 37°
2026-05-06 20:10 50.93199 -66.37144 4841 ft 185 kts 354°
2026-05-06 20:10 50.94465 -66.37534 4845 ft 183 kts 339°
2026-05-06 20:10 50.95680 -66.38161 4847 ft 184 kts 335°
2026-05-06 20:10 50.96870 -66.38845 4826 ft 184 kts 334°
2026-05-06 20:11 50.98134 -66.39355 4665 ft 197 kts 352°
2026-05-06 20:11 50.99536 -66.39311 4486 ft 201 kts 357°
2026-05-06 20:11 51.00896 -66.39204 4596 ft 192 kts
2026-05-06 20:11 51.02251 -66.38998 4494 ft 198 kts
2026-05-06 20:12 51.03605 -66.38800 4459 ft 194 kts
2026-05-06 20:12 51.04956 -66.38649 4403 ft 195 kts
2026-05-06 20:12 51.06303 -66.38352 4398 ft 195 kts
2026-05-06 20:12 51.07618 -66.38187 4435 ft 186 kts 343°
2026-05-06 20:13 51.08818 -66.38848 4487 ft 182 kts 333°
2026-05-06 20:13 51.09993 -66.39566 4530 ft 181 kts 334°
2026-05-06 20:13 51.11154 -66.40270 4581 ft 176 kts 333°
2026-05-06 20:13 51.12097 -66.41360 4633 ft 165 kts 303°
2026-05-06 20:14 51.12799 -66.42804 4671 ft 164 kts 300°
2026-05-06 20:14 51.13554 -66.44189 4727 ft 170 kts 310°
2026-05-06 20:14 51.14560 -66.45336 4783 ft 186 kts 326°
2026-05-06 20:14 51.15828 -66.45954 4832 ft 197 kts 347°
2026-05-06 20:15 51.17224 -66.46204 4833 ft 206 kts 350°
2026-05-06 20:15 51.18665 -66.46454 4830 ft 210 kts 349°
2026-05-06 20:15 51.20122 -66.46765 4832 ft 213 kts 348°
2026-05-06 20:15 51.21597 -66.47081 4832 ft 214 kts 349°
2026-05-06 20:16 51.23084 -66.47374 4824 ft 216 kts 349°
2026-05-06 20:16 51.24569 -66.47689 4831 ft 216 kts 348°
2026-05-06 20:16 51.26065 -66.48019 4825 ft 217 kts 348°
2026-05-06 20:16 51.27552 -66.48329 4829 ft 214 kts 349°
2026-05-06 20:17 51.29017 -66.48626 4815 ft 211 kts 349°
2026-05-06 20:17 51.30453 -66.48933 4811 ft 206 kts 348°
2026-05-06 20:17 51.31873 -66.49242 4811 ft 206 kts 348°
2026-05-06 20:17 51.33293 -66.49556 4810 ft 206 kts 347°
2026-05-06 20:18 51.34712 -66.49867 4812 ft 206 kts 348°
2026-05-06 20:18 51.36129 -66.50167 4816 ft 204 kts 347°
2026-05-06 20:18 51.37544 -66.50465 4816 ft 205 kts 348°
2026-05-06 20:18 51.38960 -66.50760 4813 ft 206 kts 348°
2026-05-06 20:19 51.40358 -66.51063 4822 ft 204 kts 347°
2026-05-06 20:19 51.41771 -66.51370 4817 ft 206 kts 348°
2026-05-06 20:19 51.43191 -66.51651 4816 ft 205 kts 349°
2026-05-06 20:19 51.44612 -66.51955 4817 ft 206 kts 347°
2026-05-06 20:20 51.46032 -66.52274 4814 ft 206 kts 348°
2026-05-06 20:20 51.47458 -66.52577 4811 ft 207 kts 349°
2026-05-06 20:20 51.48884 -66.52880 4811 ft 207 kts 348°
2026-05-06 20:20 51.50306 -66.53184 4818 ft 206 kts 349°
2026-05-06 20:21 51.51727 -66.53485 4818 ft 206 kts 349°
2026-05-06 20:21 51.53142 -66.53793 4816 ft 205 kts 349°
2026-05-06 20:21 51.54557 -66.54094 4814 ft 205 kts 348°
2026-05-06 20:21 51.55974 -66.54396 4816 ft 206 kts 348°
2026-05-06 20:22 51.57397 -66.54703 4810 ft 207 kts 348°
2026-05-06 20:22 51.58817 -66.55007 4803 ft 205 kts 348°
2026-05-06 20:22 51.60235 -66.55312 4810 ft 206 kts 348°
2026-05-06 20:22 51.61657 -66.55616 4809 ft 206 kts 348°
2026-05-06 20:23 51.63073 -66.55921 4814 ft 205 kts 348°
2026-05-06 20:23 51.64480 -66.56236 4812 ft 205 kts 346°
2026-05-06 20:23 51.65890 -66.56575 4807 ft 205 kts 349°
2026-05-06 20:23 51.67307 -66.56835 4813 ft 205 kts 349°
2026-05-06 20:24 51.68721 -66.57135 4815 ft 205 kts 348°
2026-05-06 20:24 51.70121 -66.57438 4814 ft 206 kts 349°
2026-05-06 20:24 51.71533 -66.57740 4814 ft 205 kts 348°
2026-05-06 20:24 51.72942 -66.58046 4812 ft 204 kts 348°
2026-05-06 20:25 51.74341 -66.58356 4809 ft 202 kts 348°
2026-05-06 20:25 51.75743 -66.58649 4813 ft 204 kts 348°
2026-05-06 20:25 51.77150 -66.58956 4811 ft 204 kts 347°
2026-05-06 20:25 51.78554 -66.59266 4807 ft 204 kts 348°
2026-05-06 20:26 51.79961 -66.59566 4807 ft 204 kts 348°
2026-05-06 20:26 51.81370 -66.59871 4805 ft 205 kts 348°
2026-05-06 20:26 51.82787 -66.60180 4806 ft 206 kts 348°
2026-05-06 20:26 51.84210 -66.60490 4803 ft 206 kts 348°
2026-05-06 20:27 51.85634 -66.60795 4805 ft 206 kts 348°
2026-05-06 20:27 51.87055 -66.61106 4808 ft 206 kts 348°
2026-05-06 20:27 51.88478 -66.61417 4810 ft 206 kts 348°
2026-05-06 20:27 51.89901 -66.61727 4806 ft 206 kts 347°
2026-05-06 20:28 51.91318 -66.62036 4802 ft 205 kts 347°
2026-05-06 20:28 51.92723 -66.62337 4811 ft 204 kts 347°
2026-05-06 20:28 51.94135 -66.62647 4811 ft 206 kts 347°
2026-05-06 20:28 51.95563 -66.62958 4812 ft 207 kts 347°
2026-05-06 20:29 51.96993 -66.63270 4807 ft 207 kts 347°
2026-05-06 20:29 51.98417 -66.63586 4809 ft 206 kts 347°
2026-05-06 20:29 51.99841 -66.63896 4807 ft 207 kts 347°
2026-05-06 20:29 52.01268 -66.64203 4806 ft 207 kts 347°
2026-05-06 20:30 52.02692 -66.64518 4803 ft 207 kts 347°
2026-05-06 20:30 52.05524 -66.65130 4802 ft 207 kts 347°
2026-05-06 20:30 52.06950 -66.65447 4805 ft 208 kts 347°
2026-05-06 20:31 52.08379 -66.65758 4805 ft 207 kts 348°
2026-05-06 20:31 52.09805 -66.66073 4804 ft 207 kts 348°
2026-05-06 20:31 52.11235 -66.66391 4799 ft 208 kts 347°
2026-05-06 20:31 52.12664 -66.66710 4797 ft 208 kts 348°
2026-05-06 20:32 52.14086 -66.67018 4905 ft 203 kts 348°
2026-05-06 20:32 52.15471 -66.67321 4995 ft 200 kts 347°
2026-05-06 20:32 52.16852 -66.67627 5003 ft 201 kts 347°
2026-05-06 20:32 52.18240 -66.67933 5003 ft 202 kts 347°
2026-05-06 20:33 52.19636 -66.68245 5003 ft 203 kts 346°
2026-05-06 20:33 52.21037 -66.68553 5005 ft 204 kts 347°
2026-05-06 20:33 52.22446 -66.68861 4999 ft 204 kts 347°
2026-05-06 20:33 52.23855 -66.69173 5004 ft 204 kts 347°
2026-05-06 20:34 52.25261 -66.69487 5008 ft 204 kts 348°
2026-05-06 20:34 52.26669 -66.69796 5008 ft 205 kts 346°
2026-05-06 20:34 52.28091 -66.70120 5004 ft 207 kts 347°
2026-05-06 20:34 52.29521 -66.70427 5004 ft 207 kts 347°
2026-05-06 20:35 52.30946 -66.70731 4996 ft 206 kts 346°
2026-05-06 20:35 52.32362 -66.71051 4995 ft 205 kts 346°
2026-05-06 20:35 52.33776 -66.71371 4996 ft 205 kts 346°
2026-05-06 20:35 52.35191 -66.71686 4996 ft 205 kts 346°
2026-05-06 20:36 52.36606 -66.72000 4991 ft 205 kts 346°
2026-05-06 20:36 52.38019 -66.72311 4994 ft 205 kts 347°
2026-05-06 20:36 52.39431 -66.72626 4994 ft 205 kts 346°
2026-05-06 20:36 52.40828 -66.72941 4994 ft 205 kts 346°
2026-05-06 20:37 52.42247 -66.73256 4994 ft 206 kts 347°
2026-05-06 20:37 52.43666 -66.73569 4996 ft 206 kts 346°
2026-05-06 20:37 52.45080 -66.73885 4996 ft 205 kts 346°
2026-05-06 20:37 52.46494 -66.74204 4995 ft 205 kts 347°
2026-05-06 20:38 52.47907 -66.74518 4997 ft 205 kts 347°
2026-05-06 20:38 52.49315 -66.74831 4998 ft 204 kts 346°
2026-05-06 20:38 52.50725 -66.75147 4998 ft 204 kts 346°
2026-05-06 20:38 52.52133 -66.75463 4998 ft 205 kts 346°
2026-05-06 20:39 52.53543 -66.75780 4998 ft 203 kts 346°
2026-05-06 20:39 52.54941 -66.76092 4997 ft 203 kts 346°
2026-05-06 20:39 52.56339 -66.76405 4996 ft 202 kts 346°
2026-05-06 20:39 52.57734 -66.76718 4992 ft 202 kts 346°
2026-05-06 20:40 52.59125 -66.77031 4996 ft 202 kts 346°
2026-05-06 20:40 52.60517 -66.77345 4994 ft 202 kts 346°
2026-05-06 20:40 52.61910 -66.77657 4993 ft 203 kts 346°
2026-05-06 20:40 52.63310 -66.77972 4994 ft 203 kts 346°
2026-05-06 20:41 52.64714 -66.78289 4996 ft 204 kts 346°
2026-05-06 20:41 52.66115 -66.78603 4994 ft 202 kts 346°
2026-05-06 20:41 52.67038 -66.78814 4996 ft 203 kts 347°
2026-05-06 20:41 52.68438 -66.79126 4993 ft 203 kts 346°
2026-05-06 20:42 52.70292 -66.79537 4996 ft 203 kts 347°
2026-05-06 20:42 52.71690 -66.79858 5006 ft 203 kts 346°
2026-05-06 20:42 52.73089 -66.80184 5004 ft 204 kts 345°
2026-05-06 20:42 52.74498 -66.80502 4959 ft 204 kts 346°
2026-05-06 20:43 52.75906 -66.80812 4957 ft 204 kts 346°
2026-05-06 20:43 52.76858 -66.81026 4955 ft 205 kts 346°
2026-05-06 20:43 52.78268 -66.81347 4950 ft 204 kts 346°
2026-05-06 20:43 52.79678 -66.81670 4949 ft 205 kts 346°
2026-05-06 20:44 52.81093 -66.81990 4944 ft 205 kts 345°
2026-05-06 20:44 52.82500 -66.82308 4943 ft 203 kts 347°
2026-05-06 20:44 52.83880 -66.82619 4935 ft 203 kts 346°
2026-05-06 20:44 52.85295 -66.82945 4935 ft 203 kts 345°
2026-05-06 20:45 52.86675 -66.83262 4933 ft 203 kts 346°
2026-05-06 20:45 52.88076 -66.83579 4935 ft 203 kts 346°
2026-05-06 20:45 52.89481 -66.83897 4937 ft 204 kts 346°
2026-05-06 20:45 52.90893 -66.84216 4940 ft 205 kts 346°
2026-05-06 20:46 52.92309 -66.84542 4934 ft 205 kts 346°
2026-05-06 20:46 52.93719 -66.84859 4932 ft 204 kts 346°
2026-05-06 20:46 52.95123 -66.85186 4933 ft 204 kts 346°
2026-05-06 20:46 52.96520 -66.85550 4929 ft 202 kts 343°
2026-05-06 20:47 52.97909 -66.85927 4934 ft 203 kts 345°
2026-05-06 20:47 52.99302 -66.86278 4937 ft 202 kts 345°
2026-05-06 20:47 53.00692 -66.86645 4938 ft 202 kts 345°
2026-05-06 20:47 53.02080 -66.87018 4938 ft 202 kts 345°
2026-05-06 20:48 53.03468 -66.87390 4945 ft 202 kts 345°
2026-05-06 20:48 53.04854 -66.87760 4944 ft 202 kts 345°
2026-05-06 20:48 53.06237 -66.88128 4949 ft 201 kts 344°
2026-05-06 20:48 53.07614 -66.88502 4950 ft 201 kts 344°
2026-05-06 20:49 53.08998 -66.88883 4957 ft 201 kts 345°
2026-05-06 20:49 53.10377 -66.89247 4962 ft 201 kts 344°
2026-05-06 20:49 53.11762 -66.89619 4963 ft 202 kts 344°
2026-05-06 20:49 53.13135 -66.89989 4963 ft 203 kts 345°
2026-05-06 20:50 53.14521 -66.90368 4966 ft 202 kts 344°
2026-05-06 20:50 53.15908 -66.90741 4971 ft 202 kts 345°
2026-05-06 20:50 53.17301 -66.91112 4975 ft 203 kts 345°
2026-05-06 20:50 53.18695 -66.91489 4980 ft 203 kts 345°
2026-05-06 20:51 53.20093 -66.91871 4987 ft 204 kts 344°
2026-05-06 20:51 53.21490 -66.92247 4992 ft 203 kts 345°
2026-05-06 20:51 53.22883 -66.92624 4991 ft 203 kts 344°
2026-05-06 20:51 53.24272 -66.93004 4992 ft 203 kts 343°
2026-05-06 20:52 53.25672 -66.93317 4997 ft 203 kts 349°
2026-05-06 20:52 53.27100 -66.93357 4963 ft 209 kts 358°
2026-05-06 20:52 53.28551 -66.92866 4916 ft 216 kts 15°
2026-05-06 20:52 53.29858 -66.91634 4952 ft 217 kts 37°
2026-05-06 20:53 53.30852 -66.89704 4850 ft 223 kts 61°
2026-05-06 20:53 53.31406 -66.87293 4770 ft 223 kts 70°
2026-05-06 20:53 53.32177 -66.85044 4662 ft 226 kts 44°
2026-05-06 20:53 53.33522 -66.83825 4577 ft 220 kts
2026-05-06 20:54 53.34986 -66.84028 4492 ft 208 kts 336°
2026-05-06 20:54 53.36342 -66.84819 4419 ft 206 kts 333°
2026-05-06 20:54 53.37656 -66.85612 4556 ft 195 kts 331°
2026-05-06 20:54 53.38765 -66.86745 4704 ft 181 kts 315°
2026-05-06 20:55 53.39760 -66.88025 4856 ft 180 kts 314°
2026-05-06 20:55 53.40732 -66.89300 4992 ft 176 kts 313°
2026-05-06 20:55 53.41714 -66.90580 5000 ft 182 kts 314°
2026-05-06 20:55 53.42719 -66.91905 4982 ft 184 kts 315°
2026-05-06 20:56 53.43735 -66.93211 4992 ft 185 kts 314°
2026-05-06 20:56 53.44750 -66.94559 4996 ft 187 kts 313°
2026-05-06 20:56 53.45762 -66.95929 5001 ft 187 kts 313°
2026-05-06 20:56 53.46775 -66.97312 5007 ft 188 kts 313°
2026-05-06 20:57 53.47822 -66.98668 4996 ft 192 kts 318°
2026-05-06 20:57 53.49022 -66.99707 4987 ft 198 kts 334°
2026-05-06 20:57 53.50388 -67.00223 4989 ft 204 kts 344°
2026-05-06 20:57 53.51794 -67.00548 5000 ft 203 kts 345°
2026-05-06 20:58 53.53167 -67.00905 4995 ft 202 kts 344°
2026-05-06 20:58 53.54573 -67.01297 4991 ft 203 kts 343°
2026-05-06 20:58 53.55945 -67.01681 4996 ft 204 kts 344°
2026-05-06 20:58 53.57348 -67.02053 4994 ft 204 kts 345°
2026-05-06 20:59 53.58749 -67.02433 4991 ft 204 kts 343°
2026-05-06 20:59 53.60172 -67.02831 4988 ft 203 kts 343°
2026-05-06 20:59 53.61549 -67.03219 4990 ft 203 kts 344°
2026-05-06 20:59 53.62947 -67.03596 4989 ft 204 kts 344°
2026-05-06 21:00 53.64346 -67.03984 4987 ft 203 kts 343°
2026-05-06 21:00 53.65743 -67.04370 4992 ft 204 kts 344°
2026-05-06 21:00 53.67141 -67.04755 4983 ft 204 kts 343°
2026-05-06 21:00 53.68541 -67.05136 4993 ft 204 kts 343°
2026-05-06 21:01 53.69940 -67.05528 4993 ft 205 kts 343°
2026-05-06 21:01 53.71347 -67.05910 4984 ft 204 kts 343°
2026-05-06 21:01 53.72744 -67.06314 4985 ft 203 kts 343°
2026-05-06 21:01 53.74136 -67.06703 4991 ft 203 kts 343°
2026-05-06 21:02 53.75532 -67.07091 4989 ft 203 kts 343°
2026-05-06 21:02 53.76925 -67.07478 4990 ft 203 kts 343°
2026-05-06 21:02 53.78316 -67.07858 4982 ft 203 kts 343°
2026-05-06 21:02 53.79707 -67.08244 4981 ft 202 kts 343°
2026-05-06 21:03 53.81096 -67.08638 4976 ft 202 kts 342°
2026-05-06 21:03 53.82486 -67.09031 4975 ft 202 kts 343°
2026-05-06 21:03 53.83877 -67.09419 4980 ft 203 kts 343°
2026-05-06 21:03 53.85276 -67.09809 4981 ft 204 kts 343°
2026-05-06 21:04 53.86674 -67.10209 4988 ft 204 kts 343°
2026-05-06 21:04 53.88072 -67.10595 4985 ft 203 kts 343°
2026-05-06 21:04 53.89468 -67.10975 4982 ft 204 kts 343°
2026-05-06 21:04 53.90868 -67.11369 4980 ft 204 kts 343°
2026-05-06 21:05 53.92266 -67.11764 4977 ft 203 kts 343°
2026-05-06 21:05 53.93661 -67.12152 4975 ft 203 kts 343°
2026-05-06 21:05 53.95050 -67.12539 4977 ft 202 kts 343°
2026-05-06 21:05 53.96440 -67.12928 4977 ft 202 kts 343°
2026-05-06 21:06 53.97836 -67.13319 4978 ft 204 kts 343°
2026-05-06 21:06 53.99236 -67.13717 4981 ft 204 kts 343°
2026-05-06 21:06 54.00639 -67.14099 4978 ft 204 kts 343°
2026-05-06 21:06 54.02030 -67.14502 4977 ft 203 kts 343°
2026-05-06 21:07 54.03422 -67.14899 4977 ft 203 kts 343°
2026-05-06 21:07 54.04800 -67.15285 4973 ft 203 kts 343°
2026-05-06 21:07 54.06191 -67.15676 4975 ft 202 kts 343°
2026-05-06 21:07 54.07585 -67.16069 4976 ft 204 kts 343°
2026-05-06 21:08 54.08985 -67.16467 4984 ft 205 kts 343°
2026-05-06 21:08 54.10394 -67.16856 4975 ft 205 kts 343°
2026-05-06 21:08 54.11804 -67.17260 4981 ft 205 kts 343°
2026-05-06 21:08 54.13209 -67.17661 4977 ft 205 kts 343°
2026-05-06 21:09 54.14613 -67.18068 4975 ft 205 kts 343°
2026-05-06 21:09 54.16022 -67.18464 4973 ft 205 kts 344°
2026-05-06 21:09 54.17428 -67.18856 4972 ft 204 kts 345°
2026-05-06 21:09 54.18823 -67.19253 4971 ft 203 kts 345°
2026-05-06 21:10 54.20215 -67.19651 4971 ft 203 kts 344°
2026-05-06 21:10 54.21605 -67.20048 4971 ft 203 kts 344°
2026-05-06 21:10 54.22997 -67.20443 4969 ft 203 kts 345°
2026-05-06 21:10 54.24388 -67.20837 4963 ft 202 kts 344°
2026-05-06 21:11 54.25778 -67.21236 4975 ft 203 kts 344°
2026-05-06 21:11 54.27172 -67.21633 4967 ft 203 kts 344°
2026-05-06 21:11 54.28564 -67.22034 4972 ft 204 kts 344°
2026-05-06 21:11 54.29968 -67.22433 4967 ft 204 kts 344°
2026-05-06 21:12 54.31371 -67.22832 4966 ft 205 kts 345°
2026-05-06 21:12 54.32776 -67.23229 4966 ft 204 kts 344°
2026-05-06 21:12 54.34177 -67.23634 4969 ft 205 kts 344°
2026-05-06 21:12 54.35584 -67.24040 4966 ft 205 kts 344°
2026-05-06 21:13 54.36994 -67.24440 4962 ft 205 kts 344°
2026-05-06 21:13 54.38401 -67.24843 4961 ft 204 kts 344°
2026-05-06 21:13 54.39800 -67.25246 4962 ft 204 kts 344°
2026-05-06 21:13 54.41179 -67.25643 4966 ft 203 kts 345°
2026-05-06 21:14 54.42574 -67.26043 4964 ft 204 kts 344°
2026-05-06 21:14 54.43970 -67.26447 4964 ft 203 kts 344°
2026-05-06 21:14 54.45364 -67.26846 4966 ft 203 kts 345°
2026-05-06 21:14 54.46758 -67.27247 4963 ft 203 kts 344°
2026-05-06 21:15 54.48152 -67.27644 4962 ft 203 kts 345°
2026-05-06 21:15 54.49544 -67.28047 4958 ft 203 kts 344°
2026-05-06 21:15 54.50931 -67.28454 4960 ft 202 kts 343°
2026-05-06 21:15 54.52321 -67.28854 4962 ft 203 kts 345°
2026-05-06 21:16 54.53719 -67.29254 4964 ft 204 kts 344°
2026-05-06 21:16 54.55121 -67.29661 4964 ft 204 kts 344°
2026-05-06 21:16 54.56521 -67.30065 4957 ft 203 kts 345°
2026-05-06 21:16 54.57910 -67.30467 4960 ft 203 kts 344°
2026-05-06 21:17 54.59302 -67.30874 4956 ft 203 kts 344°
2026-05-06 21:17 54.60702 -67.31280 4956 ft 204 kts 345°
2026-05-06 21:17 54.62101 -67.31688 4953 ft 204 kts 344°
2026-05-06 21:17 54.63500 -67.32092 4954 ft 204 kts 345°
2026-05-06 21:18 54.64900 -67.32499 4950 ft 204 kts 344°
2026-05-06 21:18 54.66303 -67.32908 4946 ft 204 kts 345°
2026-05-06 21:18 54.67704 -67.33314 4948 ft 205 kts 344°
2026-05-06 21:18 54.69107 -67.33726 4946 ft 204 kts 344°
2026-05-06 21:19 54.70507 -67.34134 4953 ft 204 kts 345°
2026-05-06 21:19 54.71909 -67.34545 4949 ft 205 kts 343°
2026-05-06 21:19 54.73319 -67.34953 4947 ft 206 kts 345°
2026-05-06 21:19 54.74735 -67.35365 4946 ft 207 kts 345°
2026-05-06 21:20 54.76156 -67.35778 4943 ft 207 kts 344°
2026-05-06 21:20 54.77093 -67.36054 4941 ft 206 kts 345°
2026-05-06 21:20 54.78965 -67.36608 4944 ft 206 kts 345°
2026-05-06 21:20 54.80371 -67.37015 4945 ft 204 kts 344°
2026-05-06 21:21 54.81774 -67.37421 4945 ft 204 kts 345°
2026-05-06 21:21 54.83174 -67.37833 4943 ft 204 kts 345°
2026-05-06 21:21 54.84576 -67.38250 4945 ft 204 kts 344°
2026-05-06 21:21 54.85974 -67.38659 4948 ft 204 kts 345°
2026-05-06 21:22 54.87376 -67.39065 4952 ft 205 kts 344°
2026-05-06 21:22 54.88780 -67.39482 4953 ft 204 kts 345°
2026-05-06 21:22 54.90179 -67.39890 4954 ft 204 kts 344°
2026-05-06 21:22 54.91574 -67.40301 4951 ft 203 kts 343°
2026-05-06 21:23 54.92971 -67.40709 4951 ft 203 kts 345°
2026-05-06 21:23 54.94367 -67.41129 4947 ft 204 kts 344°
2026-05-06 21:23 54.95771 -67.41548 4950 ft 206 kts 343°
2026-05-06 21:23 54.97187 -67.41965 4954 ft 207 kts 345°
2026-05-06 21:24 54.98611 -67.42370 4949 ft 208 kts 345°
2026-05-06 21:24 55.00018 -67.42783 4942 ft 208 kts 345°
2026-05-06 21:24 55.01440 -67.43219 4949 ft 207 kts 344°
2026-05-06 21:24 55.02852 -67.43641 4946 ft 205 kts 344°
2026-05-06 21:25 55.04255 -67.44050 4946 ft 204 kts 345°
2026-05-06 21:25 55.05649 -67.44457 4936 ft 203 kts 344°
2026-05-06 21:25 55.07035 -67.44877 4938 ft 202 kts 344°
2026-05-06 21:25 55.08416 -67.45289 4936 ft 202 kts 344°
2026-05-06 21:26 55.09800 -67.45698 4935 ft 202 kts 344°
2026-05-06 21:26 55.11183 -67.46108 4936 ft 202 kts 344°
2026-05-06 21:26 55.12567 -67.46519 4938 ft 202 kts 344°
2026-05-06 21:26 55.13954 -67.46932 4936 ft 203 kts 344°
2026-05-06 21:27 55.15346 -67.47348 4943 ft 204 kts 344°
2026-05-06 21:27 55.16749 -67.47768 4939 ft 206 kts 343°
2026-05-06 21:27 55.18161 -67.48187 4937 ft 206 kts 343°
2026-05-06 21:27 55.19569 -67.48608 4937 ft 205 kts 344°
2026-05-06 21:28 55.20966 -67.49032 4935 ft 202 kts 343°
2026-05-06 21:28 55.22347 -67.49437 4933 ft 201 kts 343°
2026-05-06 21:28 55.23736 -67.49839 4938 ft 204 kts 343°
2026-05-06 21:28 55.25141 -67.50270 4942 ft 206 kts 343°
2026-05-06 21:29 55.26561 -67.50689 4938 ft 206 kts 343°
2026-05-06 21:29 55.27967 -67.51129 4939 ft 205 kts 342°
2026-05-06 21:29 55.29369 -67.51554 4947 ft 205 kts 344°
2026-05-06 21:29 55.30785 -67.51969 4935 ft 207 kts 344°
2026-05-06 21:30 55.32204 -67.52389 4935 ft 206 kts 344°
2026-05-06 21:30 55.33617 -67.52816 4940 ft 207 kts 344°
2026-05-06 21:30 55.35036 -67.53243 4939 ft 207 kts 343°
2026-05-06 21:30 55.36454 -67.53677 4927 ft 206 kts 343°
2026-05-06 21:31 55.37860 -67.54098 4929 ft 205 kts 343°
2026-05-06 21:31 55.39265 -67.54522 4928 ft 204 kts 344°
2026-05-06 21:31 55.40664 -67.54943 4927 ft 204 kts 343°
2026-05-06 21:31 55.42061 -67.55364 4922 ft 203 kts 343°
2026-05-06 21:32 55.43457 -67.55787 4923 ft 204 kts 344°
2026-05-06 21:32 55.46253 -67.56633 4924 ft 204 kts 344°
2026-05-06 21:32 55.47181 -67.56915 4924 ft 204 kts 343°
2026-05-06 21:33 55.48583 -67.57340 4926 ft 205 kts 343°
2026-05-06 21:33 55.50447 -67.57905 4925 ft 206 kts 344°
2026-05-06 21:33 55.51854 -67.58331 4924 ft 205 kts 343°
2026-05-06 21:33 55.53257 -67.58758 4922 ft 204 kts 344°
2026-05-06 21:34 55.54201 -67.59045 4923 ft 204 kts 343°
2026-05-06 21:34 55.55597 -67.59470 4923 ft 203 kts 343°
2026-05-06 21:34 55.56993 -67.59895 4914 ft 204 kts 343°
2026-05-06 21:34 55.58371 -67.60314 4914 ft 203 kts 343°
2026-05-06 21:35 55.59764 -67.60738 4924 ft 203 kts 344°
2026-05-06 21:35 55.61176 -67.61171 4924 ft 204 kts 343°
2026-05-06 21:35 55.62573 -67.61597 4923 ft 204 kts 344°
2026-05-06 21:35 55.63951 -67.62018 4923 ft 203 kts 344°
2026-05-06 21:36 55.65343 -67.62442 4924 ft 203 kts 343°
2026-05-06 21:36 55.66735 -67.62868 4926 ft 204 kts 343°
2026-05-06 21:36 55.68135 -67.63295 4922 ft 204 kts 345°
2026-05-06 21:36 55.69540 -67.63727 4922 ft 206 kts 344°
2026-05-06 21:37 55.70962 -67.64156 4917 ft 207 kts 343°
2026-05-06 21:37 55.72377 -67.64595 4915 ft 206 kts 344°
2026-05-06 21:37 55.73782 -67.65034 4913 ft 205 kts 343°
2026-05-06 21:37 55.75180 -67.65470 4912 ft 203 kts 343°
2026-05-06 21:38 55.76569 -67.65899 4907 ft 202 kts 343°
2026-05-06 21:38 55.77962 -67.66319 4906 ft 204 kts 345°
2026-05-06 21:38 55.79362 -67.66738 4905 ft 204 kts 343°
2026-05-06 21:38 55.80766 -67.67178 4908 ft 205 kts 345°
2026-05-06 21:39 55.82167 -67.67617 4908 ft 204 kts 344°
2026-05-06 21:39 55.83560 -67.68064 4904 ft 203 kts 344°
2026-05-06 21:39 55.84948 -67.68476 4893 ft 203 kts 345°
2026-05-06 21:39 55.86341 -67.68893 4900 ft 204 kts 344°
2026-05-06 21:40 55.87743 -67.69334 4905 ft 206 kts 343°
2026-05-06 21:40 55.89158 -67.69776 4918 ft 207 kts 345°
2026-05-06 21:40 55.90577 -67.70214 4912 ft 207 kts 345°
2026-05-06 21:40 55.91993 -67.70652 4906 ft 206 kts 345°
2026-05-06 21:41 55.93404 -67.71089 4912 ft 206 kts 345°
2026-05-06 21:41 55.94811 -67.71526 4910 ft 205 kts 345°
2026-05-06 21:41 55.96214 -67.71964 4912 ft 205 kts 344°
2026-05-06 21:41 55.97616 -67.72400 4901 ft 204 kts 345°
2026-05-06 21:42 55.98998 -67.72831 4900 ft 204 kts 344°
2026-05-06 21:42 56.00397 -67.73265 4900 ft 204 kts 345°
2026-05-06 21:42 56.01796 -67.73700 4895 ft 204 kts 345°
2026-05-06 21:42 56.03193 -67.74136 4900 ft 204 kts 345°
2026-05-06 21:43 56.04593 -67.74573 4900 ft 205 kts 344°
2026-05-06 21:43 56.05994 -67.75010 4901 ft 204 kts 344°
2026-05-06 21:43 56.07399 -67.75451 4903 ft 205 kts 344°
2026-05-06 21:43 56.08803 -67.75891 4896 ft 204 kts 344°
2026-05-06 21:44 56.10193 -67.76331 4905 ft 203 kts 344°
2026-05-06 21:44 56.11593 -67.76766 4895 ft 205 kts 345°
2026-05-06 21:44 56.12996 -67.77195 4885 ft 205 kts 344°
2026-05-06 21:44 56.14396 -67.77635 4891 ft 205 kts 344°
2026-05-06 21:45 56.15804 -67.78085 4886 ft 205 kts 344°
2026-05-06 21:45 56.17210 -67.78522 4889 ft 205 kts 344°
2026-05-06 21:45 56.18611 -67.78956 4895 ft 204 kts 344°
2026-05-06 21:45 56.20009 -67.79412 4893 ft 204 kts 344°
2026-05-06 21:46 56.21403 -67.79852 4892 ft 204 kts 345°
2026-05-06 21:46 56.22798 -67.80287 4897 ft 203 kts 345°
2026-05-06 21:46 56.24196 -67.80724 4900 ft 205 kts 344°
2026-05-06 21:46 56.25607 -67.81172 4886 ft 205 kts 345°
2026-05-06 21:47 56.27006 -67.81610 4876 ft 203 kts 344°
2026-05-06 21:47 56.28391 -67.82049 4878 ft 202 kts 344°
2026-05-06 21:47 56.29775 -67.82487 4877 ft 202 kts 344°
2026-05-06 21:47 56.31155 -67.82923 4878 ft 201 kts 344°
2026-05-06 21:48 56.32529 -67.83364 4882 ft 201 kts 344°
2026-05-06 21:48 56.33914 -67.83800 4884 ft 203 kts 345°
2026-05-06 21:48 56.35309 -67.84239 4882 ft 204 kts 345°
2026-05-06 21:48 56.36702 -67.84682 4884 ft 203 kts 344°
2026-05-06 21:49 56.38079 -67.85121 4883 ft 203 kts 345°
2026-05-06 21:49 56.39472 -67.85564 4875 ft 203 kts 345°
2026-05-06 21:49 56.40868 -67.86006 4877 ft 204 kts 344°
2026-05-06 21:49 56.42269 -67.86456 4878 ft 205 kts 344°
2026-05-06 21:50 56.43674 -67.86900 4873 ft 204 kts 344°
2026-05-06 21:50 56.45069 -67.87344 4873 ft 203 kts 344°
2026-05-06 21:50 56.46460 -67.87791 4877 ft 203 kts 344°
2026-05-06 21:50 56.47852 -67.88236 4878 ft 204 kts 344°
2026-05-06 21:51 56.49250 -67.88682 4881 ft 204 kts 344°
2026-05-06 21:51 56.50643 -67.89126 4886 ft 203 kts 345°
2026-05-06 21:51 56.52038 -67.89573 4883 ft 203 kts 345°
2026-05-06 21:51 56.53423 -67.90016 4888 ft 202 kts 345°
2026-05-06 21:52 56.54810 -67.90464 4883 ft 203 kts 344°
2026-05-06 21:52 56.56195 -67.90906 4883 ft 201 kts 344°
2026-05-06 21:52 56.57571 -67.91347 4880 ft 200 kts 344°
2026-05-06 21:52 56.58944 -67.91788 4865 ft 200 kts 344°
2026-05-06 21:53 56.60314 -67.92228 4867 ft 200 kts 344°
2026-05-06 21:53 56.61684 -67.92670 4866 ft 200 kts 344°
2026-05-06 21:53 56.63057 -67.93112 4868 ft 201 kts 344°
2026-05-06 21:53 56.64441 -67.93558 4869 ft 202 kts 345°
2026-05-06 21:54 56.65830 -67.94006 4867 ft 203 kts 344°
2026-05-06 21:54 56.67219 -67.94453 4869 ft 204 kts 345°
2026-05-06 21:54 56.68615 -67.94906 4870 ft 204 kts 345°
2026-05-06 21:54 56.69997 -67.95351 4872 ft 205 kts 345°
2026-05-06 21:55 56.71400 -67.95804 4874 ft 205 kts 345°
2026-05-06 21:55 56.72805 -67.96258 4873 ft 205 kts 345°
2026-05-06 21:55 56.74207 -67.96713 4875 ft 205 kts 345°
2026-05-06 21:55 56.75611 -67.97169 4870 ft 205 kts 345°
2026-05-06 21:56 56.77010 -67.97621 4866 ft 204 kts 345°
2026-05-06 21:56 56.78406 -67.98076 4865 ft 204 kts 345°
2026-05-06 21:56 56.79801 -67.98528 4862 ft 204 kts 345°
2026-05-06 21:56 56.81199 -67.98984 4864 ft 205 kts 345°
2026-05-06 21:57 56.82604 -67.99440 4858 ft 205 kts 345°
2026-05-06 21:57 56.84004 -67.99896 4858 ft 204 kts 345°
2026-05-06 21:57 56.85398 -68.00350 4857 ft 204 kts 345°
2026-05-06 21:57 56.86795 -68.00805 4853 ft 203 kts 345°
2026-05-06 21:58 56.88187 -68.01260 4855 ft 203 kts 345°
2026-05-06 21:58 56.89578 -68.01714 4853 ft 203 kts 345°
2026-05-06 21:58 56.90970 -68.02169 4854 ft 203 kts 345°
2026-05-06 21:58 56.92360 -68.02624 4852 ft 203 kts 345°
2026-05-06 21:59 56.93745 -68.03077 4852 ft 202 kts 345°
2026-05-06 21:59 56.95132 -68.03531 4853 ft 203 kts 345°
2026-05-06 21:59 56.96523 -68.03988 4853 ft 203 kts 345°
2026-05-06 21:59 56.97918 -68.04446 4852 ft 203 kts 345°
2026-05-06 22:00 56.99307 -68.04900 4852 ft 203 kts 344°
2026-05-06 22:00 57.00699 -68.05357 4848 ft 203 kts 345°
2026-05-06 22:00 57.02093 -68.05817 4847 ft 204 kts 345°
2026-05-06 22:00 57.03489 -68.06275 4849 ft 204 kts 345°
2026-05-06 22:01 57.04888 -68.06736 4850 ft 205 kts 345°
2026-05-06 22:01 57.06289 -68.07197 4847 ft 204 kts 345°
2026-05-06 22:01 57.07681 -68.07656 4848 ft 203 kts 345°
2026-05-06 22:01 57.09068 -68.08114 4847 ft 202 kts 345°
2026-05-06 22:02 57.10453 -68.08571 4856 ft 202 kts 345°
2026-05-06 22:02 57.11821 -68.09022 4851 ft 202 kts 344°
2026-05-06 22:02 57.13203 -68.09483 4850 ft 202 kts 344°
2026-05-06 22:02 57.14589 -68.09942 4851 ft 203 kts 345°
2026-05-06 22:03 57.15980 -68.10402 4854 ft 203 kts 344°
2026-05-06 22:03 57.17371 -68.10863 4856 ft 204 kts 344°
2026-05-06 22:03 57.18769 -68.11327 4856 ft 204 kts 344°
2026-05-06 22:03 57.20163 -68.11790 4857 ft 204 kts 344°
2026-05-06 22:04 57.21561 -68.12254 4857 ft 204 kts 344°
2026-05-06 22:04 57.22961 -68.12720 4844 ft 204 kts 344°
2026-05-06 22:04 57.24353 -68.13185 4841 ft 203 kts 344°
2026-05-06 22:04 57.25738 -68.13646 4841 ft 202 kts 344°
2026-05-06 22:05 57.27119 -68.14106 4839 ft 202 kts 344°
2026-05-06 22:05 57.28500 -68.14567 4837 ft 201 kts 344°
2026-05-06 22:05 57.29873 -68.15025 4840 ft 201 kts 344°
2026-05-06 22:05 57.31252 -68.15486 4838 ft 201 kts 344°
2026-05-06 22:06 57.32628 -68.15947 4839 ft 201 kts 344°
2026-05-06 22:06 57.34004 -68.16408 4840 ft 201 kts 344°
2026-05-06 22:06 57.35381 -68.16868 4840 ft 201 kts 344°
2026-05-06 22:06 57.36759 -68.17331 4841 ft 201 kts 344°
2026-05-06 22:07 57.38135 -68.17792 4837 ft 201 kts 344°
2026-05-06 22:07 57.39508 -68.18253 4836 ft 200 kts 344°
2026-05-06 22:07 57.40880 -68.18713 4835 ft 200 kts 344°
2026-05-06 22:07 57.42247 -68.19173 4838 ft 199 kts 344°
2026-05-06 22:08 57.43611 -68.19633 4834 ft 200 kts 343°
2026-05-06 22:08 57.44984 -68.20096 4834 ft 201 kts 344°
2026-05-06 22:08 57.46359 -68.20558 4834 ft 201 kts 344°
2026-05-06 22:08 57.47733 -68.21021 4832 ft 201 kts 344°
2026-05-06 22:09 57.49087 -68.21476 4829 ft 200 kts 344°
2026-05-06 22:09 57.50461 -68.21943 4831 ft 201 kts 344°
2026-05-06 22:09 57.51840 -68.22410 4833 ft 202 kts 344°
2026-05-06 22:09 57.53225 -68.22877 4833 ft 203 kts 344°
2026-05-06 22:10 57.54613 -68.23346 4838 ft 203 kts 344°
2026-05-06 22:10 57.56005 -68.23818 4837 ft 203 kts 344°
2026-05-06 22:10 57.57396 -68.24290 4837 ft 203 kts 344°
2026-05-06 22:10 57.58787 -68.24762 4838 ft 203 kts 344°
2026-05-06 22:11 57.60182 -68.25236 4835 ft 204 kts 344°
2026-05-06 22:11 57.61575 -68.25709 4832 ft 204 kts 344°
2026-05-06 22:11 57.62969 -68.26182 4833 ft 203 kts 344°
2026-05-06 22:11 57.64361 -68.26657 4828 ft 204 kts 344°
2026-05-06 22:12 57.65757 -68.27130 4827 ft 203 kts 343°
2026-05-06 22:12 57.67146 -68.27605 4826 ft 203 kts 343°
2026-05-06 22:12 57.68529 -68.28078 4826 ft 202 kts 343°
2026-05-06 22:12 57.69907 -68.28548 4823 ft 201 kts 344°
2026-05-06 22:13 57.71279 -68.29013 4827 ft 200 kts 344°
2026-05-06 22:13 57.72647 -68.29484 4820 ft 199 kts 343°
2026-05-06 22:13 57.74009 -68.29952 4826 ft 199 kts 343°
2026-05-06 22:13 57.75371 -68.30418 4826 ft 199 kts 344°
2026-05-06 22:14 57.76724 -68.30880 4826 ft 197 kts 343°
2026-05-06 22:14 57.78074 -68.31344 4820 ft 197 kts 343°
2026-05-06 22:14 57.79418 -68.31805 4817 ft 196 kts 343°
2026-05-06 22:14 57.80758 -68.32266 4815 ft 196 kts 343°
2026-05-06 22:15 57.82093 -68.32729 4704 ft 200 kts 343°
2026-05-06 22:15 57.83450 -68.33192 4573 ft 196 kts 343°
2026-05-06 22:15 57.84780 -68.33647 4439 ft 193 kts 343°
2026-05-06 22:15 57.86097 -68.34103 4298 ft 192 kts 343°
2026-05-06 22:16 57.87407 -68.34557 4158 ft 192 kts 343°
2026-05-06 22:16 57.88723 -68.35012 4024 ft 193 kts 343°
2026-05-06 22:16 57.90056 -68.35473 3837 ft 196 kts 344°
2026-05-06 22:16 57.91394 -68.35934 3651 ft 195 kts 344°
2026-05-06 22:17 57.92719 -68.36391 3465 ft 193 kts 344°
2026-05-06 22:17 57.94034 -68.36845 3277 ft 191 kts 344°
2026-05-06 22:17 57.95337 -68.37297 3090 ft 190 kts 344°
2026-05-06 22:17 57.96633 -68.37748 2894 ft 190 kts 345°
2026-05-06 22:18 57.97918 -68.38192 2667 ft 186 kts 345°
2026-05-06 22:18 57.99180 -68.38629 2462 ft 183 kts 345°
2026-05-06 22:18 58.00428 -68.39064 2246 ft 182 kts 345°
2026-05-06 22:18 58.01672 -68.39494 2033 ft 182 kts 346°
2026-05-06 22:19 58.02913 -68.39908 1818 ft 180 kts 344°
2026-05-06 22:19 58.04149 -68.40350 1604 ft 180 kts 343°
2026-05-06 22:19 58.05387 -68.40579 1381 ft 184 kts 359°
2026-05-06 22:19 58.06617 -68.39946 1222 ft 183 kts 24°
2026-05-06 22:20 58.07735 -68.38977 1176 ft 172 kts 20°
2026-05-06 22:20 58.08792 -68.38273 1163 ft 152 kts 13°
2026-05-06 22:20 58.09752 -68.37590 1085 ft 147 kts 24°
2026-05-06 22:20 58.10680 -68.36769 911 ft 149 kts 18°
2026-05-06 22:21 58.11673 -68.36566 839 ft 141 kts 340°
2026-05-06 22:21 58.12283 -68.37706 765 ft 128 kts 271°
2026-05-06 22:21 58.11849 -68.38972 679 ft 123 kts 205°
2026-05-06 22:21 58.11075 -68.39612 576 ft 115 kts 206°
2026-05-06 22:22 58.10454 -68.40390 370 ft 105 kts 220°
2026-05-06 22:22 58.09911 -68.41304 238 ft 106 kts 222°
2026-05-06 22:22 58.09375 -68.42228 154 ft 100 kts 221°
2026-05-06 22:22 58.08915 -68.43015 140 ft 71 kts 219°
2026-05-06 22:23 58.08634 -68.43493 135 ft 38 kts 230°
2026-05-06 22:23 58.08549 -68.43580 138 ft 8 kts 50°
2026-05-06 22:23 58.08632 -68.43470 135 ft 23 kts 39°
2026-05-06 22:23 58.08784 -68.43225 136 ft 34 kts 43°
2026-05-06 22:24 58.08981 -68.42892 140 ft 42 kts 42°
2026-05-06 22:24 58.09210 -68.42500 133 ft 47 kts 43°
2026-05-06 22:24 58.09446 -68.42103 139 ft 44 kts 43°
2026-05-06 22:24 58.09636 -68.41775 133 ft 23 kts 36°
2026-05-06 22:25 58.09765 -68.41795 127 ft 18 kts 309°
2026-05-06 22:25 58.09820 -68.41916 118 ft 13 kts 312°
2026-05-06 22:25 58.09892 -68.42002 116 ft 11 kts 354°
2026-05-06 22:25 58.09934 -68.41952 116 ft 7 kts 98°
2026-05-06 22:26 58.09904 -68.41934 116 ft 0 kts 208°